Time;durP1;ratioP1;P1;durP2;ratioP2;P2;SDS_P1;SDS_P2;PMS_P1;PMS_P2;Temp;Humidity;BMP_temperature;BMP_pressure;BME280_temperature;BME280_humidity;BME280_pressure;Samples;Min_cycle;Max_cycle;Signal;HPM_P1;HPM_P2
2022/12/16 00:00:26;;;;;;;99.72;48.78;;;;;;;5.55;81.60;94485.47;4221958;28;20048;-58
2022/12/16 00:02:28;;;;;;;99.43;48.47;;;;;;;5.63;81.71;94479.56;4210203;28;20048;-55
2022/12/16 00:04:29;;;;;;;100.22;49.20;;;;;;;5.34;82.44;94478.56;4209324;28;20048;-57
2022/12/16 00:06:32;;;;;;;93.70;46.78;;;;;;;5.45;83.04;94488.03;4201833;28;20066;-59
2022/12/16 00:08:37;;;;;;;101.85;49.63;;;;;;;5.48;82.63;94490.34;4199572;28;20059;-59
2022/12/16 00:10:56;;;;;;;98.68;47.75;;;;;;;5.55;82.76;94493.25;4201411;28;20052;-58
2022/12/16 00:12:57;;;;;;;107.05;56.13;;;;;;;5.49;81.86;94453.03;4208812;28;20052;-56
2022/12/16 00:14:59;;;;;;;112.30;63.22;;;;;;;5.46;81.82;94478.44;4221725;28;20058;-53
2022/12/16 00:17:01;;;;;;;109.90;57.85;;;;;;;5.52;81.74;94486.53;4202261;28;20051;-55
2022/12/16 00:19:03;;;;;;;116.85;63.35;;;;;;;5.57;81.33;94467.97;4205831;28;20063;-54
2022/12/16 00:21:05;;;;;;;139.13;76.60;;;;;;;5.63;81.20;94477.78;4194856;28;20064;-58
2022/12/16 00:23:07;;;;;;;109.07;65.28;;;;;;;5.69;80.76;94492.84;4204585;28;20488;-55
2022/12/16 00:25:08;;;;;;;131.02;70.53;;;;;;;5.59;80.21;94440.03;4202254;28;20152;-57
2022/12/16 00:27:10;;;;;;;120.45;66.85;;;;;;;5.49;80.83;94476.41;4191787;28;20052;-57
2022/12/16 00:29:11;;;;;;;110.18;63.03;;;;;;;5.54;81.27;94468.22;4196572;28;20052;-56
2022/12/16 00:31:13;;;;;;;102.38;60.55;;;;;;;5.56;81.90;94474.09;4208921;28;20507;-53
2022/12/16 00:33:15;;;;;;;108.80;57.03;;;;;;;5.70;81.37;94463.31;4210204;28;20052;-55
2022/12/16 00:35:17;;;;;;;110.53;59.67;;;;;;;5.74;81.48;94469.03;4195576;28;20061;-58
2022/12/16 00:37:18;;;;;;;104.25;54.75;;;;;;;5.79;81.06;94492.88;4210346;28;20118;-60
2022/12/16 00:39:20;;;;;;;106.32;55.78;;;;;;;5.84;81.38;94462.09;4194243;28;20412;-60
2022/12/16 00:41:22;;;;;;;102.43;55.22;;;;;;;5.91;81.03;94464.97;4212742;28;20579;-54
2022/12/16 00:43:24;;;;;;;105.85;54.13;;;;;;;6.01;80.55;94481.44;4209890;28;20493;-56
2022/12/16 00:45:26;;;;;;;112.40;60.17;;;;;;;6.04;79.46;94465.53;4209364;28;20186;-60
2022/12/16 00:47:27;;;;;;;112.75;62.58;;;;;;;5.80;79.69;94459.91;4229775;28;20051;-54
2022/12/16 00:49:29;;;;;;;111.05;63.17;;;;;;;5.72;80.76;94484.81;4228478;28;20056;-55
2022/12/16 00:51:31;;;;;;;155.77;85.70;;;;;;;5.39;79.73;94459.16;4217931;28;20063;-56
2022/12/16 00:53:34;;;;;;;142.60;75.28;;;;;;;5.19;81.67;94479.88;4207643;28;20087;-53
2022/12/16 00:55:36;;;;;;;151.57;82.45;;;;;;;5.24;81.38;94466.50;4208104;28;20106;-58
2022/12/16 00:57:38;;;;;;;153.43;87.25;;;;;;;5.05;81.67;94460.28;4203890;28;20477;-56
2022/12/16 00:59:40;;;;;;;148.02;84.40;;;;;;;5.15;82.92;94478.50;4208735;28;20075;-56
2022/12/16 01:01:41;;;;;;;155.15;88.75;;;;;;;5.12;81.64;94456.22;4213817;28;20136;-56
2022/12/16 01:03:44;;;;;;;159.50;86.43;;;;;;;5.07;81.72;94467.94;4214507;28;20070;-54
2022/12/16 01:05:45;;;;;;;150.40;84.47;;;;;;;5.17;82.58;94455.81;4227477;28;20052;-58
2022/12/16 01:07:47;;;;;;;165.25;92.32;;;;;;;5.20;82.40;94472.91;4206826;28;20063;-58
2022/12/16 01:09:49;;;;;;;179.50;97.68;;;;;;;5.04;81.19;94461.25;4208074;28;20130;-57
2022/12/16 01:11:52;;;;;;;183.13;98.37;;;;;;;5.02;81.27;94467.53;4204470;28;20075;-58
2022/12/16 01:13:55;;;;;;;190.02;100.40;;;;;;;5.04;81.36;94452.63;4202905;28;20097;-58
2022/12/16 01:16:00;;;;;;;165.80;94.88;;;;;;;5.04;81.34;94476.81;4209510;28;20398;-56
2022/12/16 01:18:02;;;;;;;174.80;95.50;;;;;;;5.14;81.85;94479.44;4211708;28;20062;-52
2022/12/16 01:20:04;;;;;;;193.25;98.88;;;;;;;5.22;81.65;94473.59;4210583;28;20262;-56
2022/12/16 01:22:06;;;;;;;184.40;93.72;;;;;;;5.23;81.19;94483.03;4212485;28;20082;-54
2022/12/16 01:24:09;;;;;;;178.55;95.97;;;;;;;5.30;81.04;94466.78;4200719;28;20052;-56
2022/12/16 01:26:15;;;;;;;190.35;97.22;;;;;;;5.45;80.90;94469.03;4208915;28;20626;-55
2022/12/16 01:28:17;;;;;;;201.60;92.40;;;;;;;5.20;80.96;94463.34;4196294;28;20445;-58
2022/12/16 01:30:19;;;;;;;190.82;94.75;;;;;;;5.21;81.75;94469.38;4204577;28;20072;-56
2022/12/16 01:32:21;;;;;;;200.70;95.43;;;;;;;5.14;81.83;94458.66;4205045;28;20124;-59
2022/12/16 01:34:23;;;;;;;192.13;99.72;;;;;;;5.13;81.53;94462.22;4213346;28;20091;-56
2022/12/16 01:36:25;;;;;;;246.15;107.18;;;;;;;5.10;81.61;94454.72;4210447;28;20151;-59
2022/12/16 01:38:27;;;;;;;199.50;96.32;;;;;;;5.12;81.74;94447.63;4213312;28;20048;-60
2022/12/16 01:40:29;;;;;;;259.63;104.80;;;;;;;4.71;83.08;94447.59;4213768;28;20060;-59
2022/12/16 01:42:32;;;;;;;187.07;96.28;;;;;;;4.82;84.01;94472.63;4214767;28;20060;-58
2022/12/16 01:44:34;;;;;;;197.97;94.47;;;;;;;4.99;84.04;94449.59;4228178;28;20055;-57
2022/12/16 01:46:37;;;;;;;194.43;93.45;;;;;;;5.16;83.07;94451.56;4228355;28;20108;-57
2022/12/16 01:48:57;;;;;;;207.73;97.00;;;;;;;5.30;82.79;94440.81;4201944;28;20056;-56
2022/12/16 01:51:06;;;;;;;195.98;94.68;;;;;;;5.39;82.57;94444.38;4193588;28;20136;-58
2022/12/16 01:53:08;;;;;;;184.43;91.90;;;;;;;5.48;82.36;94447.94;4194447;28;20056;-56
2022/12/16 01:55:23;;;;;;;195.20;92.18;;;;;;;5.60;81.44;94446.06;4209216;28;20585;-56
2022/12/16 01:57:31;;;;;;;165.43;78.55;;;;;;;5.60;81.54;94431.28;4187867;28;20536;-60
2022/12/16 01:59:35;;;;;;;171.23;84.53;;;;;;;5.58;81.13;94446.19;4176837;28;20235;-57
2022/12/16 02:01:36;;;;;;;;;;;;;;;5.61;80.92;94439.91;4223615;28;20056;-56
2022/12/16 02:03:38;;;;;;;168.57;83.50;;;;;;;5.33;81.53;94443.16;4228512;28;19920;-55
2022/12/16 02:05:41;;;;;;;144.88;75.82;;;;;;;5.33;81.73;94453.56;4226603;28;20055;-55
2022/12/16 02:07:43;;;;;;;206.45;85.15;;;;;;;5.39;81.34;94428.78;4196394;28;20060;-57
2022/12/16 02:09:45;;;;;;;154.30;75.63;;;;;;;5.13;82.16;94397.31;4218040;28;20059;-58
2022/12/16 02:12:29;;;;;;;144.40;75.40;;;;;;;5.19;82.43;94420.16;4185330;28;20128;-57
2022/12/16 02:14:36;;;;;;;153.02;69.03;;;;;;;5.18;81.97;94402.09;4183457;28;20059;-56
2022/12/16 02:16:47;;;;;;;134.70;69.25;;;;;;;5.18;82.50;94409.88;4200050;28;20055;-55
2022/12/16 02:18:55;;;;;;;134.80;64.47;;;;;;;5.22;82.29;94404.28;4199360;28;20106;-57
2022/12/16 02:21:22;;;;;;;129.30;64.85;;;;;;;5.36;82.07;94417.88;4219008;28;20297;-56
2022/12/16 02:23:32;;;;;;;120.57;61.15;;;;;;;5.46;82.30;94429.06;4208780;28;20124;-58
2022/12/16 02:25:53;;;;;;;120.53;58.92;;;;;;;5.55;81.67;94402.31;4201411;28;20047;-57
2022/12/16 02:28:08;;;;;;;112.43;59.95;;;;;;;5.66;80.96;94419.56;4220028;28;20047;-56
2022/12/16 02:30:18;;;;;;;107.72;54.80;;;;;;;5.68;80.83;94407.25;4173629;28;20066;-55
2022/12/16 02:32:20;;;;;;;129.35;58.55;;;;;;;5.45;80.52;94398.88;4214695;28;20122;-57
2022/12/16 02:34:49;;;;;;;111.50;56.63;;;;;;;5.48;81.04;94408.97;4215289;28;20124;-56
2022/12/16 02:37:15;;;;;;;105.55;54.83;;;;;;;5.55;81.36;94410.09;4194477;28;20060;-57
2022/12/16 02:39:21;;;;;;;106.97;55.50;;;;;;;5.52;80.87;94408.56;4194375;28;20083;-56
2022/12/16 02:41:42;;;;;;;105.60;53.25;;;;;;;5.46;81.26;94426.47;4176525;28;20069;-57
2022/12/16 02:44:03;;;;;;;122.65;58.22;;;;;;;4.96;82.23;94410.94;4205613;28;20055;-58
2022/12/16 02:46:06;;;;;;;116.47;56.08;;;;;;;5.03;82.57;94432.81;4176779;28;20048;-55
2022/12/16 02:48:08;;;;;;;120.78;57.67;;;;;;;4.57;83.71;94416.78;4184585;28;20060;-54
2022/12/16 02:50:17;;;;;;;108.05;53.58;;;;;;;4.69;84.67;94441.69;4210227;28;20114;-56
2022/12/16 02:52:30;;;;;;;74.00;40.88;;;;;;;4.88;84.49;94448.75;4203715;28;20052;-55
2022/12/16 02:54:32;;;;;;;72.07;39.95;;;;;;;5.08;83.76;94446.22;4184317;28;20473;-59
2022/12/16 02:56:58;;;;;;;59.15;35.03;;;;;;;5.14;82.88;94458.66;4196573;28;21081;-57
2022/12/16 02:59:17;;;;;;;56.40;31.75;;;;;;;5.30;82.13;94468.56;4204800;28;20063;-58
2022/12/16 03:01:26;;;;;;;60.63;32.28;;;;;;;4.95;82.17;94448.22;4210601;28;20146;-57
2022/12/16 03:03:39;;;;;;;49.85;28.85;;;;;;;4.99;82.66;94470.38;4177647;28;20511;-57
2022/12/16 03:05:47;;;;;;;51.03;28.63;;;;;;;5.11;82.30;94444.16;4179022;28;20057;-53
2022/12/16 03:07:50;;;;;;;50.33;30.25;;;;;;;5.19;82.11;94443.53;4203326;28;20052;-57
2022/12/16 03:09:52;;;;;;;56.13;32.28;;;;;;;5.33;81.77;94440.56;4226239;28;20059;-58
2022/12/16 03:11:55;;;;;;;54.33;31.15;;;;;;;5.44;82.07;94423.19;4194274;28;20064;-58
2022/12/16 03:13:59;;;;;;;55.30;29.58;;;;;;;5.47;81.13;94420.34;4186192;28;20246;-58
2022/12/16 03:16:02;;;;;;;55.45;29.85;;;;;;;5.53;80.30;94419.81;4197917;28;20386;-56
2022/12/16 03:18:07;;;;;;;50.03;29.40;;;;;;;5.59;80.60;94405.44;4203166;28;20087;-58
2022/12/16 03:20:14;;;;;;;46.42;29.02;;;;;;;5.60;80.02;94420.91;4204862;28;20052;-55
2022/12/16 03:22:19;;;;;;;50.88;31.42;;;;;;;5.57;80.27;94409.94;4203850;28;20105;-56
2022/12/16 03:24:21;;;;;;;55.28;31.58;;;;;;;5.62;80.30;94407.78;4223555;28;20039;-56
2022/12/16 03:26:29;;;;;;;54.45;32.20;;;;;;;5.64;80.28;94400.66;4220890;28;20052;-56
2022/12/16 03:28:45;;;;;;;55.47;33.28;;;;;;;5.50;80.20;94412.28;4208449;28;20056;-58
2022/12/16 03:30:54;;;;;;;60.75;34.53;;;;;;;5.38;81.13;94411.59;4178485;28;20096;-56
2022/12/16 03:33:21;;;;;;;59.65;33.58;;;;;;;5.47;81.42;94404.75;4192262;28;20075;-56
2022/12/16 03:35:34;;;;;;;63.60;36.85;;;;;;;5.39;80.84;94402.81;4189275;28;20063;-58
2022/12/16 03:37:37;;;;;;;64.30;35.65;;;;;;;5.47;81.47;94405.56;4187160;28;20114;-57
2022/12/16 03:39:43;;;;;;;66.28;37.72;;;;;;;5.54;80.38;94424.03;4176009;28;20131;-57
2022/12/16 03:41:46;;;;;;;59.95;34.47;;;;;;;5.49;80.35;94428.81;4177934;28;20064;-57
2022/12/16 03:43:48;;;;;;;60.08;33.10;;;;;;;5.24;80.86;94446.53;4207212;28;20132;-56
2022/12/16 03:45:52;;;;;;;62.55;38.55;;;;;;;4.90;81.53;94433.03;4183699;28;20139;-54
2022/12/16 03:47:55;;;;;;;;;;;;;;;4.81;82.11;94460.59;4181823;28;20192;-56
2022/12/16 03:49:57;;;;;;;74.50;41.25;;;;;;;4.32;82.89;94430.97;4195319;28;19924;-52
2022/12/16 03:51:59;;;;;;;70.47;41.83;;;;;;;4.46;83.62;94450.59;4205424;28;20465;-58
2022/12/16 03:54:01;;;;;;;76.57;43.58;;;;;;;4.65;83.92;94452.47;4203411;28;20397;-58
2022/12/16 03:56:02;;;;;;;73.85;41.85;;;;;;;4.82;83.08;94449.28;4198657;28;20085;-57
2022/12/16 03:58:04;;;;;;;63.45;37.53;;;;;;;4.92;81.67;94452.72;4198255;28;20047;-58
2022/12/16 04:00:07;;;;;;;58.58;36.65;;;;;;;5.04;81.51;94444.84;4204785;28;20140;-57
2022/12/16 04:02:08;;;;;;;58.35;36.40;;;;;;;5.20;81.00;94458.13;4194872;28;20587;-57
2022/12/16 04:04:11;;;;;;;56.40;34.83;;;;;;;5.27;79.63;94467.06;4207933;28;20091;-55
2022/12/16 04:06:17;;;;;;;61.80;35.90;;;;;;;5.38;79.74;94449.69;4210376;28;20058;-56
2022/12/16 04:08:19;;;;;;;63.97;35.95;;;;;;;5.43;79.05;94445.75;4213798;28;20064;-55
2022/12/16 04:24:17;;;;;;;54.47;34.33;;;;;;;5.50;79.21;94446.03;4193764;28;20049;-59
2022/12/16 04:24:34;;;;;;;55.72;34.33;;;;;;;5.72;78.54;94450.16;4193266;28;20052;-57
2022/12/16 04:27:23;;;;;;;60.80;36.45;;;;;;;5.75;78.26;94435.13;4213808;28;20090;-56
2022/12/16 04:28:57;;;;;;;54.33;33.22;;;;;;;5.78;78.14;94430.63;4212874;28;20239;-56
2022/12/16 04:30:59;;;;;;;57.55;33.63;;;;;;;5.85;78.31;94434.31;4229740;28;20051;-55
